Terminal Aerodrome Forecast
Issued by NWS

Home | Current Version | Previous Version | Text Only | Print | Product List | Glossary On
Versions: 1 2 3 4 5 6 7 8 9 10 11 12
000
FTUS44 KBMX 110520
TAFMGM
TAF
KMGM 110520Z 1106/1206 00000KT P6SM SKC
     FM111500 10006KT P6SM SCT015 OVC025
     FM111900 13004KT P6SM SCT015 BKN250
     FM112200 11005KT P6SM OVC015
     FM120300 13005KT 4SM BR OVC003=

USA.gov is the U.S. government's official web portal to all federal, state and local government web resources and services.